Terminal Aerodrome Forecast
Issued by NWS Mt. Holly, NJ

Home | Current Version | Previous Version | Text Only | Print | Product List | Glossary On
Versions: 1 2 3 4 5 6 7 8 9 10 11 12 13 14 15 16 17 18 19 20
000
FTUS41 KPHI 301730
TAFACY
TAF
KACY 301730Z 3018/3118 24017G27KT P6SM SCT050 BKN200
     FM301900 28017G27KT P6SM BKN200
     FM302300 29009KT P6SM FEW050
     FM310200 30005KT P6SM SKC
     FM311400 25005KT P6SM BKN120=

USA.gov is the U.S. government's official web portal to all federal, state and local government web resources and services.